createdAt,value
2023-01-25T00:00:01.757Z,22.10
2023-01-25T00:02:28.822Z,22.33
2023-01-25T00:04:55.591Z,22.50
2023-01-25T00:07:23.706Z,22.20
2023-01-25T00:09:50.913Z,22.00
2023-01-25T00:12:17.685Z,21.37
2023-01-25T00:14:45.457Z,22.10
2023-01-25T00:17:12.159Z,23.53
2023-01-25T00:19:38.840Z,22.53
2023-01-25T00:22:05.527Z,22.13
2023-01-25T00:24:32.220Z,23.73
2023-01-25T00:26:58.873Z,24.07
2023-01-25T00:29:25.621Z,23.90
2023-01-25T00:32:02.688Z,23.87
2023-01-25T00:34:29.891Z,22.97
2023-01-25T00:37:12.992Z,23.63
2023-01-25T00:39:39.719Z,21.23
2023-01-25T00:42:10.868Z,21.60
2023-01-25T00:44:38.888Z,23.40
2023-01-25T00:47:05.870Z,23.70
2023-01-25T00:49:33.487Z,23.10
2023-01-25T00:52:00.896Z,22.87
2023-01-25T00:54:27.608Z,23.70
2023-01-25T00:56:56.447Z,25.13
2023-01-25T00:59:24.648Z,24.33
2023-01-25T01:01:52.390Z,22.93
2023-01-25T01:04:20.241Z,23.03
2023-01-25T01:06:47.020Z,22.53
2023-01-25T01:09:17.505Z,23.30
2023-01-25T01:11:44.533Z,22.53
2023-01-25T01:14:12.296Z,24.33
2023-01-25T01:16:39.251Z,20.83
2023-01-25T01:19:06.318Z,21.77
2023-01-25T01:21:33.026Z,22.43
2023-01-25T01:23:59.809Z,23.23
2023-01-25T01:26:26.422Z,21.67
2023-01-25T01:28:53.164Z,22.23
2023-01-25T01:31:23.015Z,22.00
2023-01-25T01:33:53.959Z,23.07
2023-01-25T01:36:26.024Z,22.80
2023-01-25T01:38:53.034Z,23.33
2023-01-25T01:41:20.124Z,22.27
2023-01-25T01:43:46.819Z,23.60
2023-01-25T01:46:31.942Z,23.83
2023-01-25T01:49:03.272Z,22.33
2023-01-25T01:51:51.376Z,22.43
2023-01-25T01:54:25.925Z,24.27
2023-01-25T01:57:16.490Z,23.20
2023-01-25T02:00:00.883Z,23.63
2023-01-25T02:02:27.690Z,23.13
2023-01-25T02:04:59.622Z,23.47
2023-01-25T02:07:38.294Z,22.83
2023-01-25T02:10:09.199Z,22.20
2023-01-25T02:12:37.148Z,22.17
2023-01-25T02:15:05.117Z,20.80
2023-01-25T02:17:37.762Z,21.57
2023-01-25T02:20:18.100Z,19.70
2023-01-25T02:23:15.746Z,19.87
2023-01-25T02:25:43.103Z,20.00
2023-01-25T02:28:16.560Z,20.50
2023-01-25T02:30:44.168Z,20.37
2023-01-25T02:33:11.263Z,20.70
2023-01-25T02:35:40.653Z,20.67
2023-01-25T02:38:08.364Z,19.33
2023-01-25T02:40:43.931Z,20.57
2023-01-25T02:43:10.570Z,21.47
2023-01-25T02:45:37.259Z,19.33
2023-01-25T02:48:04.267Z,19.47
2023-01-25T02:50:30.968Z,20.80
2023-01-25T02:52:57.620Z,18.97
2023-01-25T02:55:24.300Z,20.30
2023-01-25T02:57:51.030Z,21.20
2023-01-25T03:00:18.058Z,19.50
2023-01-25T03:02:44.778Z,18.53
2023-01-25T03:05:11.440Z,19.30
2023-01-25T03:07:38.117Z,19.07
2023-01-25T03:10:05.140Z,19.20
2023-01-25T03:12:31.898Z,18.83
2023-01-25T03:14:58.546Z,18.67
2023-01-25T03:17:25.258Z,18.77
2023-01-25T03:19:53.953Z,20.00
2023-01-25T03:22:20.678Z,18.63
2023-01-25T03:24:47.376Z,19.50
2023-01-25T03:27:14.422Z,18.77
2023-01-25T03:29:41.769Z,19.80
2023-01-25T03:32:08.945Z,18.43
2023-01-25T03:34:36.263Z,19.67
2023-01-25T03:37:03.815Z,19.57
2023-01-25T03:39:30.525Z,18.93
2023-01-25T03:41:57.268Z,19.73
2023-01-25T03:44:24.010Z,18.70
2023-01-25T03:46:50.706Z,20.57
2023-01-25T03:49:19.240Z,20.47
2023-01-25T03:51:45.911Z,19.27
2023-01-25T03:54:12.686Z,19.10
2023-01-25T03:56:39.362Z,18.30
2023-01-25T03:59:06.211Z,19.90
2023-01-25T04:01:33.325Z,18.67
2023-01-25T04:04:00.059Z,19.93
2023-01-25T04:06:26.730Z,19.10
2023-01-25T04:08:53.404Z,17.90
2023-01-25T04:11:20.101Z,18.53
2023-01-25T04:13:46.867Z,18.07
2023-01-25T04:16:13.829Z,17.90
2023-01-25T04:18:40.898Z,16.33
2023-01-25T04:21:07.565Z,15.97
2023-01-25T04:23:34.410Z,17.43
2023-01-25T04:26:05.225Z,17.10
2023-01-25T04:28:33.137Z,18.03
2023-01-25T04:30:59.966Z,16.33
2023-01-25T04:33:27.054Z,18.10
2023-01-25T04:35:53.723Z,17.43
2023-01-25T04:38:20.878Z,16.53
2023-01-25T04:40:47.740Z,17.07
2023-01-25T04:43:16.283Z,16.43
2023-01-25T04:45:43.250Z,16.00
2023-01-25T04:48:12.302Z,17.97
2023-01-25T04:50:43.724Z,17.73
2023-01-25T04:53:12.271Z,16.17
2023-01-25T04:55:39.041Z,16.47
2023-01-25T04:58:05.742Z,16.40
2023-01-25T05:00:32.747Z,16.13
2023-01-25T05:02:59.539Z,15.97
2023-01-25T05:05:26.264Z,16.50
2023-01-25T05:07:53.028Z,15.77
2023-01-25T05:10:19.825Z,16.47
2023-01-25T05:12:46.545Z,14.90
2023-01-25T05:15:13.751Z,14.43
2023-01-25T05:17:40.544Z,15.50
2023-01-25T05:20:08.064Z,15.93
2023-01-25T05:22:34.756Z,15.70
2023-01-25T05:25:02.905Z,15.93
2023-01-25T05:27:29.650Z,17.07
2023-01-25T05:29:57.305Z,17.37
2023-01-25T05:32:24.814Z,15.93
2023-01-25T05:34:52.201Z,17.73
2023-01-25T05:37:21.156Z,16.00
2023-01-25T05:39:48.086Z,16.73
2023-01-25T05:42:17.815Z,15.33
2023-01-25T05:44:47.394Z,16.77
2023-01-25T05:47:17.299Z,15.90
2023-01-25T05:49:44.207Z,15.40
2023-01-25T05:52:15.453Z,16.30
2023-01-25T05:54:42.078Z,15.87
2023-01-25T05:57:08.760Z,15.43
2023-01-25T05:59:35.409Z,17.33
2023-01-25T06:02:02.113Z,16.33
2023-01-25T06:04:28.889Z,17.33
2023-01-25T06:06:55.660Z,18.00
2023-01-25T06:09:23.469Z,16.97
2023-01-25T06:11:50.273Z,17.10
2023-01-25T06:14:17.354Z,16.57
2023-01-25T06:16:43.950Z,15.53
2023-01-25T06:19:13.873Z,16.50
2023-01-25T06:21:40.661Z,16.67
2023-01-25T06:24:07.792Z,17.23
2023-01-25T06:26:34.557Z,18.87
2023-01-25T06:29:01.211Z,17.20
2023-01-25T06:31:27.992Z,17.30
2023-01-25T06:33:54.843Z,20.00
2023-01-25T06:36:22.749Z,18.67
2023-01-25T06:38:51.025Z,18.87
2023-01-25T06:41:18.989Z,18.70
2023-01-25T06:43:45.929Z,18.90
2023-01-25T06:46:12.875Z,19.03
2023-01-25T06:48:41.780Z,20.37
2023-01-25T06:51:11.200Z,19.67
2023-01-25T06:53:42.132Z,19.30
2023-01-25T06:56:21.626Z,18.10
2023-01-25T06:58:49.400Z,23.50
2023-01-25T07:01:21.415Z,19.33
2023-01-25T07:03:53.200Z,18.33
2023-01-25T07:06:20.310Z,18.17
2023-01-25T07:08:47.345Z,18.63
2023-01-25T07:11:14.879Z,17.40
2023-01-25T07:13:45.752Z,18.50
2023-01-25T07:16:18.134Z,18.80
2023-01-25T07:18:44.978Z,18.40
2023-01-25T07:21:21.228Z,17.10
2023-01-25T07:23:49.383Z,16.63
2023-01-25T07:26:24.708Z,18.90
2023-01-25T07:28:52.652Z,15.37
2023-01-25T07:31:20.544Z,18.07
2023-01-25T07:33:56.251Z,17.33
2023-01-25T07:36:23.694Z,15.93
2023-01-25T07:38:54.603Z,17.17
2023-01-25T07:41:21.883Z,17.17
2023-01-25T07:43:48.860Z,17.30
2023-01-25T07:46:16.768Z,16.23
2023-01-25T07:48:48.886Z,16.03
2023-01-25T07:51:23.195Z,16.00
2023-01-25T07:53:52.234Z,16.97
2023-01-25T07:56:22.221Z,18.00
2023-01-25T07:58:49.165Z,17.07
2023-01-25T08:01:18.411Z,16.30
2023-01-25T08:03:49.846Z,16.90
2023-01-25T08:06:17.466Z,17.53
2023-01-25T08:08:47.400Z,16.63
2023-01-25T08:11:21.709Z,16.70
2023-01-25T08:13:49.948Z,16.33
2023-01-25T08:16:18.695Z,15.50
2023-01-25T08:18:54.302Z,14.80
2023-01-25T08:21:21.770Z,16.07
2023-01-25T08:23:48.640Z,16.30
2023-01-25T08:26:17.119Z,16.73
2023-01-25T08:28:44.404Z,14.93
2023-01-25T08:31:16.632Z,17.50
2023-01-25T08:33:44.440Z,14.73
2023-01-25T08:36:11.143Z,15.03
2023-01-25T08:38:37.845Z,15.50
2023-01-25T08:41:09.416Z,13.73
2023-01-25T08:43:36.509Z,13.03
2023-01-25T08:46:03.298Z,12.57
2023-01-25T08:48:29.990Z,14.03
2023-01-25T08:50:56.821Z,14.10
2023-01-25T08:53:23.835Z,14.50
2023-01-25T08:55:51.064Z,14.97
2023-01-25T08:58:22.000Z,13.83
2023-01-25T09:00:49.351Z,14.23
2023-01-25T09:03:18.093Z,14.93
2023-01-25T09:05:45.072Z,17.03
2023-01-25T09:08:11.814Z,15.03
2023-01-25T09:10:38.570Z,14.43
2023-01-25T09:13:07.658Z,15.00
2023-01-25T09:15:35.311Z,15.17
2023-01-25T09:18:01.943Z,16.33
2023-01-25T09:20:30.550Z,15.57
2023-01-25T09:22:59.857Z,16.67
2023-01-25T09:25:26.571Z,16.00
2023-01-25T09:27:53.206Z,16.87
2023-01-25T09:30:20.000Z,14.70
2023-01-25T09:32:50.676Z,16.30
2023-01-25T09:35:17.641Z,16.33
2023-01-25T09:37:44.383Z,15.83
2023-01-25T09:40:28.865Z,16.47
2023-01-25T09:43:24.784Z,15.90
2023-01-25T09:45:51.402Z,15.20
2023-01-25T09:48:38.279Z,15.83
2023-01-25T09:51:17.091Z,15.43
2023-01-25T09:53:51.152Z,17.80
2023-01-25T09:56:26.696Z,14.80
2023-01-25T09:59:04.756Z,15.17
2023-01-25T10:01:39.075Z,16.50
2023-01-25T10:04:14.826Z,16.07
2023-01-25T10:06:55.169Z,16.87
2023-01-25T10:09:37.560Z,16.77
2023-01-25T10:12:23.603Z,16.53
2023-01-25T10:14:50.906Z,16.63
2023-01-25T10:17:35.513Z,16.27
2023-01-25T10:20:24.412Z,15.80
2023-01-25T10:23:11.206Z,16.07
2023-01-25T10:25:46.573Z,16.07
2023-01-25T10:28:57.454Z,18.17
2023-01-25T10:31:53.387Z,18.57
2023-01-25T10:34:35.452Z,17.57
2023-01-25T10:37:19.973Z,16.73
2023-01-25T10:40:14.897Z,18.40
2023-01-25T10:42:48.323Z,19.50
2023-01-25T10:45:16.271Z,19.37
2023-01-25T10:47:49.844Z,20.67
2023-01-25T10:50:47.276Z,20.03
2023-01-25T10:53:39.613Z,21.37
2023-01-25T10:56:09.356Z,21.83
2023-01-25T10:58:38.626Z,25.27
2023-01-25T11:01:07.663Z,23.10
2023-01-25T11:03:40.723Z,23.00
2023-01-25T11:06:09.042Z,23.43
2023-01-25T11:08:38.257Z,22.80
2023-01-25T11:11:21.116Z,22.30
2023-01-25T11:13:47.988Z,24.93
2023-01-25T11:16:29.716Z,23.27
2023-01-25T11:18:57.535Z,23.50
2023-01-25T11:21:27.197Z,24.07
2023-01-25T11:24:09.416Z,24.20
2023-01-25T11:26:38.806Z,23.27
2023-01-25T11:29:22.620Z,24.47
2023-01-25T11:31:54.514Z,26.47
2023-01-25T11:34:26.639Z,26.77
2023-01-25T11:37:35.100Z,27.80
2023-01-25T11:40:13.022Z,27.70
2023-01-25T11:43:17.440Z,28.80
2023-01-25T11:46:06.615Z,26.80
2023-01-25T11:48:58.976Z,26.13
2023-01-25T11:51:35.898Z,27.03
2023-01-25T11:54:28.256Z,27.17
2023-01-25T11:57:07.207Z,30.07
2023-01-25T11:59:50.150Z,27.40
2023-01-25T12:02:36.334Z,27.57
2023-01-25T12:05:33.862Z,26.90
2023-01-25T12:08:32.973Z,28.03
2023-01-25T12:11:11.786Z,27.57
2023-01-25T12:13:52.837Z,26.20
2023-01-25T12:16:42.207Z,28.40
2023-01-25T12:19:37.788Z,28.47
2023-01-25T12:22:28.622Z,26.63
2023-01-25T12:25:02.225Z,27.60
2023-01-25T12:27:47.806Z,28.03
2023-01-25T12:30:38.838Z,26.43
2023-01-25T12:33:15.881Z,28.50
2023-01-25T12:35:54.843Z,25.30
2023-01-25T12:38:49.027Z,28.13
2023-01-25T12:41:38.732Z,25.43
2023-01-25T12:44:20.972Z,28.47
2023-01-25T12:47:03.051Z,28.57
2023-01-25T12:50:09.118Z,27.53
2023-01-25T12:52:51.878Z,27.67
2023-01-25T12:55:18.963Z,28.70
2023-01-25T12:58:14.819Z,27.70
2023-01-25T13:00:57.631Z,26.63
2023-01-25T13:03:55.199Z,28.10
2023-01-25T13:06:32.645Z,28.43
2023-01-25T13:09:25.210Z,28.83
2023-01-25T13:11:52.235Z,23.57
2023-01-25T13:14:28.350Z,27.27
2023-01-25T13:17:10.637Z,26.13
2023-01-25T13:19:37.709Z,25.07
2023-01-25T13:22:04.943Z,27.63
2023-01-25T13:24:33.204Z,24.13
2023-01-25T13:27:36.694Z,25.23
2023-01-25T13:30:29.561Z,26.50
2023-01-25T13:32:58.317Z,27.13
2023-01-25T13:35:26.703Z,25.43
2023-01-25T13:38:25.248Z,27.57
2023-01-25T13:41:11.989Z,26.90
2023-01-25T13:43:40.484Z,25.63
2023-01-25T13:46:11.288Z,26.03
2023-01-25T13:48:46.809Z,27.57
2023-01-25T13:51:16.881Z,25.47
2023-01-25T13:53:55.441Z,24.93
2023-01-25T13:56:28.295Z,23.83
2023-01-25T13:58:54.975Z,24.23
2023-01-25T14:01:23.807Z,25.87
2023-01-25T14:03:55.725Z,28.53
2023-01-25T14:06:25.536Z,27.53
2023-01-25T14:08:54.388Z,26.53
2023-01-25T14:11:23.802Z,27.67
2023-01-25T14:14:12.890Z,27.80
2023-01-25T14:16:40.137Z,25.40
2023-01-25T14:19:22.521Z,26.47
2023-01-25T14:21:49.624Z,27.90
2023-01-25T14:24:19.553Z,26.60
2023-01-25T14:26:47.491Z,24.93
2023-01-25T14:29:35.669Z,27.00
2023-01-25T14:32:03.339Z,26.87
2023-01-25T14:34:30.093Z,27.43
2023-01-25T14:37:14.314Z,23.97
2023-01-25T14:39:41.039Z,24.83
2023-01-25T14:42:08.255Z,23.47
2023-01-25T14:44:35.122Z,25.00
2023-01-25T14:47:23.326Z,24.57
2023-01-25T14:49:50.296Z,23.57
2023-01-25T14:52:19.511Z,22.93
2023-01-25T14:54:54.837Z,25.00
2023-01-25T14:57:29.563Z,23.60
2023-01-25T14:59:57.213Z,23.13
2023-01-25T15:02:30.507Z,24.57
2023-01-25T15:05:15.603Z,24.93
2023-01-25T15:07:46.340Z,25.50
2023-01-25T15:10:28.414Z,25.30
2023-01-25T15:13:17.870Z,23.33
2023-01-25T15:15:59.157Z,25.60
2023-01-25T15:18:51.822Z,23.83
2023-01-25T15:21:24.022Z,23.73
2023-01-25T15:23:51.801Z,22.83
2023-01-25T15:26:26.864Z,23.63
2023-01-25T15:28:56.218Z,24.37
2023-01-25T15:31:34.314Z,25.20
2023-01-25T15:34:01.860Z,25.17
2023-01-25T15:36:30.478Z,22.70
2023-01-25T15:38:57.312Z,23.53
2023-01-25T15:41:24.343Z,24.77
2023-01-25T15:43:51.390Z,24.33
2023-01-25T15:46:22.616Z,24.53
2023-01-25T15:48:50.808Z,23.13
2023-01-25T15:51:18.419Z,23.67
2023-01-25T15:53:45.442Z,23.13
2023-01-25T15:56:30.873Z,23.83
2023-01-25T15:59:00.465Z,22.80
2023-01-25T16:01:29.671Z,23.83
2023-01-25T16:03:58.587Z,25.13
2023-01-25T16:06:33.513Z,23.77
2023-01-25T16:09:01.797Z,25.17
2023-01-25T16:11:28.546Z,25.80
2023-01-25T16:13:55.244Z,24.53
2023-01-25T16:16:23.794Z,24.90
2023-01-25T16:18:50.775Z,23.97
2023-01-25T16:21:17.507Z,24.63
2023-01-25T16:23:44.265Z,24.87
2023-01-25T16:26:29.522Z,25.13
2023-01-25T16:28:56.622Z,24.53
2023-01-25T16:31:32.343Z,23.87
2023-01-25T16:34:01.233Z,25.27
2023-01-25T16:36:28.969Z,26.90
2023-01-25T16:38:55.730Z,26.90
2023-01-25T16:41:22.460Z,24.53
2023-01-25T16:43:49.750Z,25.47
2023-01-25T16:46:17.985Z,23.47
2023-01-25T16:48:46.398Z,23.60
2023-01-25T16:51:24.649Z,23.90
2023-01-25T16:53:55.419Z,22.73
2023-01-25T16:56:30.198Z,24.33
2023-01-25T16:59:02.331Z,23.23
2023-01-25T17:01:29.132Z,23.87
2023-01-25T17:03:56.176Z,22.83
2023-01-25T17:06:28.651Z,24.10
2023-01-25T17:09:09.440Z,23.93
2023-01-25T17:11:39.986Z,24.23
2023-01-25T17:14:07.202Z,23.10
2023-01-25T17:16:34.532Z,26.43
2023-01-25T17:19:04.479Z,25.30
2023-01-25T17:21:32.235Z,22.63
2023-01-25T17:24:00.565Z,24.90
2023-01-25T17:26:29.114Z,22.97
2023-01-25T17:28:57.717Z,24.77
2023-01-25T17:31:27.525Z,23.33
2023-01-25T17:33:55.466Z,23.10
2023-01-25T17:36:22.737Z,23.80
2023-01-25T17:38:49.776Z,24.33
2023-01-25T17:41:17.397Z,22.87
2023-01-25T17:43:44.271Z,22.47
2023-01-25T17:46:18.097Z,23.87
2023-01-25T17:48:45.391Z,21.83
2023-01-25T17:51:12.078Z,22.97
2023-01-25T17:53:38.946Z,21.10
2023-01-25T17:56:07.190Z,23.40
2023-01-25T17:58:38.127Z,22.57
2023-01-25T18:01:19.990Z,24.60
2023-01-25T18:03:48.278Z,24.17
2023-01-25T18:06:18.077Z,22.23
2023-01-25T18:08:47.948Z,23.93
2023-01-25T18:11:19.844Z,25.13
2023-01-25T18:13:49.463Z,22.77
2023-01-25T18:16:18.765Z,21.40
2023-01-25T18:18:46.128Z,20.80
2023-01-25T18:21:24.269Z,21.40
2023-01-25T18:23:53.902Z,23.20
2023-01-25T18:26:26.232Z,21.43
2023-01-25T18:28:57.997Z,21.10
2023-01-25T18:31:24.888Z,20.63
2023-01-25T18:33:51.609Z,20.43
2023-01-25T18:36:18.767Z,18.97
2023-01-25T18:38:45.575Z,20.87
2023-01-25T18:41:12.688Z,20.27
2023-01-25T18:43:39.436Z,18.83
2023-01-25T18:46:06.452Z,20.17
2023-01-25T18:48:36.527Z,20.60
2023-01-25T18:51:09.063Z,20.03
2023-01-25T18:53:38.035Z,18.37
2023-01-25T18:56:12.406Z,19.27
2023-01-25T18:58:39.343Z,20.17
2023-01-25T19:01:12.361Z,18.67
2023-01-25T19:03:39.171Z,19.80
2023-01-25T19:06:06.231Z,18.10
2023-01-25T19:08:33.670Z,19.70
2023-01-25T19:11:02.298Z,18.70
2023-01-25T19:13:32.220Z,20.70
2023-01-25T19:16:00.883Z,19.17
2023-01-25T19:18:35.455Z,21.23
2023-01-25T19:21:06.351Z,20.13
2023-01-25T19:23:35.315Z,23.33
2023-01-25T19:26:02.005Z,18.10
2023-01-25T19:28:29.254Z,20.10
2023-01-25T19:30:56.726Z,22.13
2023-01-25T19:33:23.739Z,22.27
2023-01-25T19:35:59.937Z,21.87
2023-01-25T19:38:26.825Z,22.90
2023-01-25T19:40:53.564Z,21.57
2023-01-25T19:43:20.243Z,22.43
2023-01-25T19:45:46.930Z,22.67
2023-01-25T19:48:13.565Z,22.77
2023-01-25T19:50:40.355Z,21.60
2023-01-25T19:53:07.087Z,22.03
2023-01-25T19:55:33.895Z,22.33
2023-01-25T19:58:00.565Z,21.33
2023-01-25T20:00:27.571Z,21.60
2023-01-25T20:02:57.380Z,21.63
2023-01-25T20:05:28.230Z,22.83
2023-01-25T20:07:55.502Z,21.50
2023-01-25T20:10:22.296Z,23.77
2023-01-25T20:12:48.958Z,23.57
2023-01-25T20:15:15.921Z,23.37
2023-01-25T20:17:43.551Z,25.20
2023-01-25T20:20:10.989Z,23.93
2023-01-25T20:22:37.815Z,26.43
2023-01-25T20:25:04.894Z,22.27
2023-01-25T20:27:31.519Z,24.80
2023-01-25T20:29:58.344Z,24.77
2023-01-25T20:32:32.832Z,22.13
2023-01-25T20:35:03.383Z,22.57
2023-01-25T20:37:30.186Z,21.40
2023-01-25T20:39:56.946Z,21.87
2023-01-25T20:42:23.726Z,20.13
2023-01-25T20:44:50.429Z,21.47
2023-01-25T20:47:17.064Z,22.40
2023-01-25T20:49:43.723Z,21.30
2023-01-25T20:52:13.712Z,21.50
2023-01-25T20:54:41.657Z,20.73
2023-01-25T20:57:08.880Z,21.37
2023-01-25T20:59:35.520Z,19.27
2023-01-25T21:02:02.371Z,19.67
2023-01-25T21:04:29.036Z,20.37
2023-01-25T21:06:55.720Z,21.63
2023-01-25T21:09:23.337Z,20.30
2023-01-25T21:11:50.080Z,20.23
2023-01-25T21:14:16.865Z,20.93
2023-01-25T21:16:43.537Z,20.23
2023-01-25T21:19:10.575Z,19.93
2023-01-25T21:21:38.568Z,20.37
2023-01-25T21:24:05.977Z,20.00
2023-01-25T21:26:34.277Z,17.30
2023-01-25T21:29:02.387Z,18.33
2023-01-25T21:31:33.701Z,17.73
2023-01-25T21:34:01.308Z,18.13
2023-01-25T21:36:28.482Z,18.10
2023-01-25T21:38:55.477Z,17.67
2023-01-25T21:41:29.086Z,18.10
2023-01-25T21:44:16.238Z,19.53
2023-01-25T21:46:49.264Z,17.53
2023-01-25T21:49:37.420Z,17.40
2023-01-25T21:52:04.310Z,16.87
2023-01-25T21:54:37.077Z,16.93
2023-01-25T21:57:09.277Z,17.40
2023-01-25T21:59:36.591Z,16.87
2023-01-25T22:02:05.116Z,17.87
2023-01-25T22:04:36.120Z,17.30
2023-01-25T22:07:04.393Z,17.17
2023-01-25T22:09:31.474Z,17.97
2023-01-25T22:11:58.387Z,17.10
2023-01-25T22:14:25.415Z,18.10
2023-01-25T22:16:52.411Z,17.80
2023-01-25T22:19:19.483Z,16.90
2023-01-25T22:21:46.274Z,16.43
2023-01-25T22:24:13.388Z,16.33
2023-01-25T22:26:46.388Z,16.77
2023-01-25T22:29:13.981Z,15.50
2023-01-25T22:31:41.441Z,17.03
2023-01-25T22:34:08.250Z,17.57
2023-01-25T22:36:35.281Z,16.03
2023-01-25T22:39:02.065Z,18.10
2023-01-25T22:41:31.008Z,16.47
2023-01-25T22:43:58.422Z,17.17
2023-01-25T22:46:27.690Z,15.97
2023-01-25T22:48:54.682Z,18.13
2023-01-25T22:51:25.428Z,16.30
2023-01-25T22:53:53.442Z,16.27
2023-01-25T22:56:23.067Z,17.60
2023-01-25T22:58:50.680Z,15.00
2023-01-25T23:01:25.413Z,17.80
2023-01-25T23:03:52.942Z,18.33
2023-01-25T23:06:25.519Z,19.13
2023-01-25T23:08:55.284Z,16.40
2023-01-25T23:11:24.243Z,18.20
2023-01-25T23:14:11.438Z,18.63
2023-01-25T23:16:38.104Z,18.10
2023-01-25T23:19:05.496Z,17.37
2023-01-25T23:21:32.699Z,17.77
2023-01-25T23:24:00.969Z,18.67
2023-01-25T23:26:29.776Z,17.43
2023-01-25T23:28:57.561Z,18.60
2023-01-25T23:31:26.116Z,18.00
2023-01-25T23:33:59.435Z,19.03
2023-01-25T23:36:28.668Z,19.13
2023-01-25T23:38:56.451Z,18.90
2023-01-25T23:41:26.232Z,19.07
2023-01-25T23:43:53.396Z,19.57
2023-01-25T23:46:20.143Z,19.17
2023-01-25T23:48:46.953Z,17.53
2023-01-25T23:51:15.621Z,18.80
2023-01-25T23:53:43.166Z,18.77
2023-01-25T23:56:19.002Z,18.50
2023-01-25T23:58:46.363Z,18.30
